sensor_id;sensor_type;location;lat;lon;timestamp;P1;durP1;ratioP1;P2;durP2;ratioP2
64467;SDS011;50853;46.836;16.820;2023-01-09T00:01:33;3.35;;;1.95;;
64467;SDS011;50853;46.836;16.820;2023-01-09T00:04:01;5.75;;;2.10;;
64467;SDS011;50853;46.836;16.820;2023-01-09T00:06:28;3.45;;;1.98;;
64467;SDS011;50853;46.836;16.820;2023-01-09T00:08:54;5.30;;;1.67;;
64467;SDS011;50853;46.836;16.820;2023-01-09T00:11:20;2.50;;;1.83;;
64467;SDS011;50853;46.836;16.820;2023-01-09T00:13:46;2.53;;;1.60;;
64467;SDS011;50853;46.836;16.820;2023-01-09T00:16:12;2.93;;;1.90;;
64467;SDS011;50853;46.836;16.820;2023-01-09T00:18:38;3.08;;;1.80;;
64467;SDS011;50853;46.836;16.820;2023-01-09T00:21:05;3.30;;;1.97;;
64467;SDS011;50853;46.836;16.820;2023-01-09T00:23:33;3.15;;;1.90;;
64467;SDS011;50853;46.836;16.820;2023-01-09T00:28:32;2.08;;;1.67;;
64467;SDS011;50853;46.836;16.820;2023-01-09T00:30:58;2.83;;;1.70;;
64467;SDS011;50853;46.836;16.820;2023-01-09T00:35:53;7.82;;;1.98;;
64467;SDS011;50853;46.836;16.820;2023-01-09T00:38:18;5.97;;;1.70;;
64467;SDS011;50853;46.836;16.820;2023-01-09T00:40:44;4.30;;;2.00;;
64467;SDS011;50853;46.836;16.820;2023-01-09T00:43:10;2.80;;;1.73;;
64467;SDS011;50853;46.836;16.820;2023-01-09T00:45:36;2.30;;;1.63;;
64467;SDS011;50853;46.836;16.820;2023-01-09T00:48:03;2.20;;;1.60;;
64467;SDS011;50853;46.836;16.820;2023-01-09T00:50:33;2.83;;;1.65;;
64467;SDS011;50853;46.836;16.820;2023-01-09T00:53:05;2.88;;;2.05;;
64467;SDS011;50853;46.836;16.820;2023-01-09T00:55:35;4.10;;;2.00;;
64467;SDS011;50853;46.836;16.820;2023-01-09T00:58:01;5.35;;;1.60;;
64467;SDS011;50853;46.836;16.820;2023-01-09T01:00:27;2.83;;;1.70;;
64467;SDS011;50853;46.836;16.820;2023-01-09T01:02:53;2.83;;;1.70;;
64467;SDS011;50853;46.836;16.820;2023-01-09T01:05:19;4.20;;;1.80;;
64467;SDS011;50853;46.836;16.820;2023-01-09T01:08:13;3.10;;;1.90;;
64467;SDS011;50853;46.836;16.820;2023-01-09T01:10:41;3.33;;;1.75;;
64467;SDS011;50853;46.836;16.820;2023-01-09T01:13:07;2.25;;;1.70;;
64467;SDS011;50853;46.836;16.820;2023-01-09T01:15:33;2.83;;;1.60;;
64467;SDS011;50853;46.836;16.820;2023-01-09T01:17:59;2.37;;;1.50;;
64467;SDS011;50853;46.836;16.820;2023-01-09T01:20:25;2.70;;;1.57;;
64467;SDS011;50853;46.836;16.820;2023-01-09T01:22:51;2.30;;;1.60;;
64467;SDS011;50853;46.836;16.820;2023-01-09T01:25:16;2.70;;;1.57;;
64467;SDS011;50853;46.836;16.820;2023-01-09T01:27:43;4.17;;;1.70;;
64467;SDS011;50853;46.836;16.820;2023-01-09T01:30:09;2.58;;;1.77;;
64467;SDS011;50853;46.836;16.820;2023-01-09T01:32:37;2.90;;;1.80;;
64467;SDS011;50853;46.836;16.820;2023-01-09T01:35:03;3.33;;;1.67;;
64467;SDS011;50853;46.836;16.820;2023-01-09T01:37:30;2.78;;;1.88;;
64467;SDS011;50853;46.836;16.820;2023-01-09T01:39:58;2.42;;;1.52;;
64467;SDS011;50853;46.836;16.820;2023-01-09T01:42:24;2.83;;;1.70;;
64467;SDS011;50853;46.836;16.820;2023-01-09T01:48:03;2.10;;;1.50;;
64467;SDS011;50853;46.836;16.820;2023-01-09T01:58:22;6.72;;;1.52;;
64467;SDS011;50853;46.836;16.820;2023-01-09T02:00:49;2.45;;;1.70;;
64467;SDS011;50853;46.836;16.820;2023-01-09T02:03:17;2.13;;;1.47;;
64467;SDS011;50853;46.836;16.820;2023-01-09T02:05:45;2.30;;;1.50;;
64467;SDS011;50853;46.836;16.820;2023-01-09T02:08:11;2.23;;;1.47;;
64467;SDS011;50853;46.836;16.820;2023-01-09T02:10:37;4.70;;;1.87;;
64467;SDS011;50853;46.836;16.820;2023-01-09T02:13:04;3.35;;;1.63;;
64467;SDS011;50853;46.836;16.820;2023-01-09T02:15:36;2.10;;;1.45;;
64467;SDS011;50853;46.836;16.820;2023-01-09T02:18:33;2.15;;;1.40;;
64467;SDS011;50853;46.836;16.820;2023-01-09T02:22:29;2.22;;;1.40;;
64467;SDS011;50853;46.836;16.820;2023-01-09T02:35:51;2.20;;;1.40;;
64467;SDS011;50853;46.836;16.820;2023-01-09T02:41:20;2.40;;;1.60;;
64467;SDS011;50853;46.836;16.820;2023-01-09T02:46:40;1.83;;;1.30;;
64467;SDS011;50853;46.836;16.820;2023-01-09T02:49:06;3.13;;;1.55;;
64467;SDS011;50853;46.836;16.820;2023-01-09T02:51:37;1.90;;;1.58;;
64467;SDS011;50853;46.836;16.820;2023-01-09T02:54:27;2.60;;;1.42;;
64467;SDS011;50853;46.836;16.820;2023-01-09T02:57:19;2.72;;;1.77;;
64467;SDS011;50853;46.836;16.820;2023-01-09T03:00:16;2.25;;;1.38;;
64467;SDS011;50853;46.836;16.820;2023-01-09T03:02:59;2.30;;;1.42;;
64467;SDS011;50853;46.836;16.820;2023-01-09T03:05:52;1.95;;;1.50;;
64467;SDS011;50853;46.836;16.820;2023-01-09T03:08:24;2.20;;;1.40;;
64467;SDS011;50853;46.836;16.820;2023-01-09T03:11:02;2.10;;;1.42;;
64467;SDS011;50853;46.836;16.820;2023-01-09T03:13:37;2.25;;;1.40;;
64467;SDS011;50853;46.836;16.820;2023-01-09T03:16:13;3.20;;;1.55;;
64467;SDS011;50853;46.836;16.820;2023-01-09T03:18:44;2.72;;;1.70;;
64467;SDS011;50853;46.836;16.820;2023-01-09T03:21:12;2.05;;;1.50;;
64467;SDS011;50853;46.836;16.820;2023-01-09T03:26:17;2.15;;;1.38;;
64467;SDS011;50853;46.836;16.820;2023-01-09T03:28:44;1.80;;;1.20;;
64467;SDS011;50853;46.836;16.820;2023-01-09T03:31:11;2.28;;;1.55;;
64467;SDS011;50853;46.836;16.820;2023-01-09T03:33:37;2.85;;;1.60;;
64467;SDS011;50853;46.836;16.820;2023-01-09T03:36:04;2.30;;;1.30;;
64467;SDS011;50853;46.836;16.820;2023-01-09T03:38:30;2.42;;;1.70;;
64467;SDS011;50853;46.836;16.820;2023-01-09T03:40:56;6.63;;;1.63;;
64467;SDS011;50853;46.836;16.820;2023-01-09T03:43:22;1.97;;;1.40;;
64467;SDS011;50853;46.836;16.820;2023-01-09T03:45:48;3.85;;;1.65;;
64467;SDS011;50853;46.836;16.820;2023-01-09T03:48:14;9.20;;;1.80;;
64467;SDS011;50853;46.836;16.820;2023-01-09T03:50:39;5.27;;;1.30;;
64467;SDS011;50853;46.836;16.820;2023-01-09T03:53:10;2.60;;;1.60;;
64467;SDS011;50853;46.836;16.820;2023-01-09T03:55:42;2.33;;;1.27;;
64467;SDS011;50853;46.836;16.820;2023-01-09T03:58:12;2.33;;;1.45;;
64467;SDS011;50853;46.836;16.820;2023-01-09T04:00:39;1.98;;;1.45;;
64467;SDS011;50853;46.836;16.820;2023-01-09T04:03:05;2.07;;;1.40;;
64467;SDS011;50853;46.836;16.820;2023-01-09T04:05:32;1.92;;;1.30;;
64467;SDS011;50853;46.836;16.820;2023-01-09T04:07:58;2.70;;;1.30;;
64467;SDS011;50853;46.836;16.820;2023-01-09T04:10:24;1.90;;;1.40;;
64467;SDS011;50853;46.836;16.820;2023-01-09T04:12:49;2.47;;;1.50;;
64467;SDS011;50853;46.836;16.820;2023-01-09T04:15:15;2.70;;;1.40;;
64467;SDS011;50853;46.836;16.820;2023-01-09T04:17:41;3.83;;;1.60;;
64467;SDS011;50853;46.836;16.820;2023-01-09T04:20:07;4.40;;;1.57;;
64467;SDS011;50853;46.836;16.820;2023-01-09T04:25:00;9.77;;;1.35;;
64467;SDS011;50853;46.836;16.820;2023-01-09T04:27:26;11.43;;;2.13;;
64467;SDS011;50853;46.836;16.820;2023-01-09T04:29:52;12.53;;;1.83;;
64467;SDS011;50853;46.836;16.820;2023-01-09T04:32:17;7.67;;;1.80;;
64467;SDS011;50853;46.836;16.820;2023-01-09T04:34:43;5.63;;;1.87;;
64467;SDS011;50853;46.836;16.820;2023-01-09T04:37:09;4.07;;;2.27;;
64467;SDS011;50853;46.836;16.820;2023-01-09T04:39:35;5.07;;;2.20;;
64467;SDS011;50853;46.836;16.820;2023-01-09T04:42:01;5.90;;;2.60;;
64467;SDS011;50853;46.836;16.820;2023-01-09T04:44:27;6.07;;;2.45;;
64467;SDS011;50853;46.836;16.820;2023-01-09T04:46:54;9.00;;;2.70;;
64467;SDS011;50853;46.836;16.820;2023-01-09T04:49:21;6.30;;;2.30;;
64467;SDS011;50853;46.836;16.820;2023-01-09T04:51:47;7.80;;;2.27;;
64467;SDS011;50853;46.836;16.820;2023-01-09T04:54:13;18.70;;;2.47;;
64467;SDS011;50853;46.836;16.820;2023-01-09T04:56:39;7.70;;;2.87;;
64467;SDS011;50853;46.836;16.820;2023-01-09T04:59:05;5.23;;;2.10;;
64467;SDS011;50853;46.836;16.820;2023-01-09T05:01:32;4.72;;;2.47;;
64467;SDS011;50853;46.836;16.820;2023-01-09T05:03:58;2.93;;;1.87;;
64467;SDS011;50853;46.836;16.820;2023-01-09T05:06:24;4.27;;;2.20;;
64467;SDS011;50853;46.836;16.820;2023-01-09T05:08:50;3.37;;;2.00;;
64467;SDS011;50853;46.836;16.820;2023-01-09T05:11:16;6.40;;;2.00;;
64467;SDS011;50853;46.836;16.820;2023-01-09T05:13:42;4.70;;;2.00;;
64467;SDS011;50853;46.836;16.820;2023-01-09T05:16:08;5.07;;;2.17;;
64467;SDS011;50853;46.836;16.820;2023-01-09T05:18:34;9.43;;;1.87;;
64467;SDS011;50853;46.836;16.820;2023-01-09T05:21:00;3.60;;;1.90;;
64467;SDS011;50853;46.836;16.820;2023-01-09T05:23:25;4.10;;;1.60;;
64467;SDS011;50853;46.836;16.820;2023-01-09T05:25:51;13.47;;;2.43;;
64467;SDS011;50853;46.836;16.820;2023-01-09T05:28:17;3.20;;;1.80;;
64467;SDS011;50853;46.836;16.820;2023-01-09T05:30:43;2.63;;;1.53;;
64467;SDS011;50853;46.836;16.820;2023-01-09T05:33:08;3.23;;;1.73;;
64467;SDS011;50853;46.836;16.820;2023-01-09T05:35:34;6.07;;;2.27;;
64467;SDS011;50853;46.836;16.820;2023-01-09T05:38:00;8.40;;;2.07;;
64467;SDS011;50853;46.836;16.820;2023-01-09T05:40:26;6.43;;;1.77;;
64467;SDS011;50853;46.836;16.820;2023-01-09T05:42:52;3.13;;;1.83;;
64467;SDS011;50853;46.836;16.820;2023-01-09T05:45:17;6.10;;;1.93;;
64467;SDS011;50853;46.836;16.820;2023-01-09T05:47:44;7.63;;;2.00;;
64467;SDS011;50853;46.836;16.820;2023-01-09T05:50:10;10.20;;;2.30;;
64467;SDS011;50853;46.836;16.820;2023-01-09T05:52:36;29.95;;;3.50;;
64467;SDS011;50853;46.836;16.820;2023-01-09T05:55:03;15.80;;;2.47;;
64467;SDS011;50853;46.836;16.820;2023-01-09T05:57:29;20.45;;;3.15;;
64467;SDS011;50853;46.836;16.820;2023-01-09T05:59:55;12.20;;;2.80;;
64467;SDS011;50853;46.836;16.820;2023-01-09T06:02:21;17.73;;;3.43;;
64467;SDS011;50853;46.836;16.820;2023-01-09T06:04:47;12.47;;;2.67;;
64467;SDS011;50853;46.836;16.820;2023-01-09T06:07:13;11.23;;;2.77;;
64467;SDS011;50853;46.836;16.820;2023-01-09T06:09:38;12.87;;;3.47;;
64467;SDS011;50853;46.836;16.820;2023-01-09T06:12:04;7.77;;;2.93;;
64467;SDS011;50853;46.836;16.820;2023-01-09T06:14:30;12.87;;;2.90;;
64467;SDS011;50853;46.836;16.820;2023-01-09T06:16:56;14.07;;;3.20;;
64467;SDS011;50853;46.836;16.820;2023-01-09T06:19:22;9.17;;;3.50;;
64467;SDS011;50853;46.836;16.820;2023-01-09T06:21:48;9.37;;;2.87;;
64467;SDS011;50853;46.836;16.820;2023-01-09T06:24:13;14.60;;;3.67;;
64467;SDS011;50853;46.836;16.820;2023-01-09T06:26:39;6.57;;;3.77;;
64467;SDS011;50853;46.836;16.820;2023-01-09T06:29:05;9.90;;;3.53;;
64467;SDS011;50853;46.836;16.820;2023-01-09T06:31:32;8.32;;;4.30;;
64467;SDS011;50853;46.836;16.820;2023-01-09T06:33:58;9.57;;;3.80;;
64467;SDS011;50853;46.836;16.820;2023-01-09T06:36:24;8.47;;;4.20;;
64467;SDS011;50853;46.836;16.820;2023-01-09T06:38:50;6.50;;;3.50;;
64467;SDS011;50853;46.836;16.820;2023-01-09T06:41:16;8.90;;;4.20;;
64467;SDS011;50853;46.836;16.820;2023-01-09T06:43:41;7.13;;;4.10;;
64467;SDS011;50853;46.836;16.820;2023-01-09T06:46:07;8.03;;;4.40;;
64467;SDS011;50853;46.836;16.820;2023-01-09T06:48:33;7.95;;;4.43;;
64467;SDS011;50853;46.836;16.820;2023-01-09T06:50:59;5.40;;;3.50;;
64467;SDS011;50853;46.836;16.820;2023-01-09T06:53:25;9.30;;;4.37;;
64467;SDS011;50853;46.836;16.820;2023-01-09T06:55:51;10.63;;;3.90;;
64467;SDS011;50853;46.836;16.820;2023-01-09T06:58:17;8.00;;;3.93;;
64467;SDS011;50853;46.836;16.820;2023-01-09T07:00:43;9.13;;;4.10;;
64467;SDS011;50853;46.836;16.820;2023-01-09T07:03:09;7.07;;;4.00;;
64467;SDS011;50853;46.836;16.820;2023-01-09T07:05:39;9.32;;;4.20;;
64467;SDS011;50853;46.836;16.820;2023-01-09T07:08:06;10.57;;;3.80;;
64467;SDS011;50853;46.836;16.820;2023-01-09T07:10:33;9.00;;;3.65;;
64467;SDS011;50853;46.836;16.820;2023-01-09T07:12:59;6.40;;;3.77;;
64467;SDS011;50853;46.836;16.820;2023-01-09T07:15:24;8.00;;;3.43;;
64467;SDS011;50853;46.836;16.820;2023-01-09T07:17:51;5.63;;;3.77;;
64467;SDS011;50853;46.836;16.820;2023-01-09T07:20:17;6.13;;;3.70;;
64467;SDS011;50853;46.836;16.820;2023-01-09T07:22:43;6.63;;;3.87;;
64467;SDS011;50853;46.836;16.820;2023-01-09T07:25:09;6.57;;;3.63;;
64467;SDS011;50853;46.836;16.820;2023-01-09T07:27:35;5.63;;;3.53;;
64467;SDS011;50853;46.836;16.820;2023-01-09T07:30:01;7.17;;;3.47;;
64467;SDS011;50853;46.836;16.820;2023-01-09T07:32:28;7.68;;;3.75;;
64467;SDS011;50853;46.836;16.820;2023-01-09T07:34:54;5.27;;;3.10;;
64467;SDS011;50853;46.836;16.820;2023-01-09T07:37:20;4.70;;;3.07;;
64467;SDS011;50853;46.836;16.820;2023-01-09T07:39:46;5.78;;;3.58;;
64467;SDS011;50853;46.836;16.820;2023-01-09T07:42:12;7.40;;;3.63;;
64467;SDS011;50853;46.836;16.820;2023-01-09T07:44:38;5.50;;;3.13;;
64467;SDS011;50853;46.836;16.820;2023-01-09T07:47:03;5.93;;;3.50;;
64467;SDS011;50853;46.836;16.820;2023-01-09T07:49:29;4.83;;;3.47;;
64467;SDS011;50853;46.836;16.820;2023-01-09T07:51:55;6.17;;;3.50;;
64467;SDS011;50853;46.836;16.820;2023-01-09T07:54:21;5.43;;;3.33;;
64467;SDS011;50853;46.836;16.820;2023-01-09T07:56:47;9.17;;;3.83;;
64467;SDS011;50853;46.836;16.820;2023-01-09T07:59:13;6.68;;;3.70;;
64467;SDS011;50853;46.836;16.820;2023-01-09T08:01:39;4.03;;;2.93;;
64467;SDS011;50853;46.836;16.820;2023-01-09T08:04:04;5.43;;;3.00;;
64467;SDS011;50853;46.836;16.820;2023-01-09T08:06:30;5.30;;;3.23;;
64467;SDS011;50853;46.836;16.820;2023-01-09T08:08:56;5.43;;;3.13;;
64467;SDS011;50853;46.836;16.820;2023-01-09T08:11:23;5.88;;;3.13;;
64467;SDS011;50853;46.836;16.820;2023-01-09T08:13:49;5.70;;;2.85;;
64467;SDS011;50853;46.836;16.820;2023-01-09T08:16:15;4.93;;;3.17;;
64467;SDS011;50853;46.836;16.820;2023-01-09T08:18:41;6.90;;;3.47;;
64467;SDS011;50853;46.836;16.820;2023-01-09T08:21:07;4.33;;;3.03;;
64467;SDS011;50853;46.836;16.820;2023-01-09T08:23:33;7.38;;;3.10;;
64467;SDS011;50853;46.836;16.820;2023-01-09T08:25:59;4.67;;;2.87;;
64467;SDS011;50853;46.836;16.820;2023-01-09T08:28:25;5.27;;;3.27;;
64467;SDS011;50853;46.836;16.820;2023-01-09T08:30:50;6.33;;;3.43;;
64467;SDS011;50853;46.836;16.820;2023-01-09T08:33:16;5.07;;;3.05;;
64467;SDS011;50853;46.836;16.820;2023-01-09T08:35:42;6.70;;;3.07;;
64467;SDS011;50853;46.836;16.820;2023-01-09T08:38:08;4.75;;;3.40;;
64467;SDS011;50853;46.836;16.820;2023-01-09T08:40:35;4.53;;;3.20;;
64467;SDS011;50853;46.836;16.820;2023-01-09T08:43:01;3.80;;;2.70;;
64467;SDS011;50853;46.836;16.820;2023-01-09T08:45:45;6.80;;;3.30;;
64467;SDS011;50853;46.836;16.820;2023-01-09T08:48:30;4.68;;;2.85;;
64467;SDS011;50853;46.836;16.820;2023-01-09T08:50:55;5.85;;;3.10;;
64467;SDS011;50853;46.836;16.820;2023-01-09T08:53:21;4.87;;;3.13;;
64467;SDS011;50853;46.836;16.820;2023-01-09T08:55:47;5.03;;;2.70;;
64467;SDS011;50853;46.836;16.820;2023-01-09T08:58:13;4.67;;;2.93;;
64467;SDS011;50853;46.836;16.820;2023-01-09T09:00:38;5.20;;;3.20;;
64467;SDS011;50853;46.836;16.820;2023-01-09T09:03:04;4.93;;;3.60;;
64467;SDS011;50853;46.836;16.820;2023-01-09T09:05:30;6.03;;;3.80;;
64467;SDS011;50853;46.836;16.820;2023-01-09T09:07:57;4.30;;;3.40;;
64467;SDS011;50853;46.836;16.820;2023-01-09T09:10:27;8.43;;;3.95;;
64467;SDS011;50853;46.836;16.820;2023-01-09T09:12:54;5.50;;;4.15;;
64467;SDS011;50853;46.836;16.820;2023-01-09T09:15:22;7.70;;;4.53;;
64467;SDS011;50853;46.836;16.820;2023-01-09T09:17:52;7.75;;;4.78;;
64467;SDS011;50853;46.836;16.820;2023-01-09T09:20:21;6.85;;;4.32;;
64467;SDS011;50853;46.836;16.820;2023-01-09T09:22:48;7.00;;;4.75;;
64467;SDS011;50853;46.836;16.820;2023-01-09T09:25:14;10.75;;;5.72;;
64467;SDS011;50853;46.836;16.820;2023-01-09T09:30:07;13.55;;;6.18;;
64467;SDS011;50853;46.836;16.820;2023-01-09T09:32:33;10.55;;;5.47;;
64467;SDS011;50853;46.836;16.820;2023-01-09T09:34:59;11.02;;;6.28;;
64467;SDS011;50853;46.836;16.820;2023-01-09T09:37:25;14.47;;;5.80;;
64467;SDS011;50853;46.836;16.820;2023-01-09T09:39:51;14.70;;;6.67;;
64467;SDS011;50853;46.836;16.820;2023-01-09T09:56:03;33.15;;;11.93;;
64467;SDS011;50853;46.836;16.820;2023-01-09T09:58:35;29.45;;;12.38;;
64467;SDS011;50853;46.836;16.820;2023-01-09T10:01:02;47.55;;;14.45;;
64467;SDS011;50853;46.836;16.820;2023-01-09T10:03:31;72.72;;;16.30;;
64467;SDS011;50853;46.836;16.820;2023-01-09T10:06:12;87.85;;;17.85;;
64467;SDS011;50853;46.836;16.820;2023-01-09T10:14:47;96.43;;;19.30;;
64467;SDS011;50853;46.836;16.820;2023-01-09T10:17:25;108.20;;;19.10;;
64467;SDS011;50853;46.836;16.820;2023-01-09T10:25:48;77.18;;;15.98;;
64467;SDS011;50853;46.836;16.820;2023-01-09T10:37:53;65.63;;;17.20;;
64467;SDS011;50853;46.836;16.820;2023-01-09T10:40:21;56.72;;;15.98;;
64467;SDS011;50853;46.836;16.820;2023-01-09T10:43:11;54.15;;;16.73;;
64467;SDS011;50853;46.836;16.820;2023-01-09T10:45:51;56.67;;;16.17;;
64467;SDS011;50853;46.836;16.820;2023-01-09T10:48:33;48.28;;;16.20;;
64467;SDS011;50853;46.836;16.820;2023-01-09T10:51:02;37.58;;;14.10;;
64467;SDS011;50853;46.836;16.820;2023-01-09T10:53:38;48.05;;;14.20;;
64467;SDS011;50853;46.836;16.820;2023-01-09T10:56:14;43.53;;;14.60;;
64467;SDS011;50853;46.836;16.820;2023-01-09T10:58:46;41.13;;;13.60;;
64467;SDS011;50853;46.836;16.820;2023-01-09T11:01:12;44.00;;;13.63;;
64467;SDS011;50853;46.836;16.820;2023-01-09T11:03:39;45.00;;;13.40;;
64467;SDS011;50853;46.836;16.820;2023-01-09T11:06:11;33.43;;;11.57;;
64467;SDS011;50853;46.836;16.820;2023-01-09T11:08:46;29.70;;;11.75;;
64467;SDS011;50853;46.836;16.820;2023-01-09T11:11:29;30.40;;;10.85;;
64467;SDS011;50853;46.836;16.820;2023-01-09T11:14:11;20.80;;;8.80;;
64467;SDS011;50853;46.836;16.820;2023-01-09T11:19:17;21.95;;;8.85;;
64467;SDS011;50853;46.836;16.820;2023-01-09T11:21:43;18.05;;;8.20;;
64467;SDS011;50853;46.836;16.820;2023-01-09T11:26:48;14.63;;;7.50;;
64467;SDS011;50853;46.836;16.820;2023-01-09T11:29:16;16.75;;;7.43;;
64467;SDS011;50853;46.836;16.820;2023-01-09T11:31:52;13.68;;;6.90;;
64467;SDS011;50853;46.836;16.820;2023-01-09T11:34:26;12.02;;;6.43;;
64467;SDS011;50853;46.836;16.820;2023-01-09T11:37:01;15.20;;;6.40;;
64467;SDS011;50853;46.836;16.820;2023-01-09T11:39:36;10.35;;;6.20;;
64467;SDS011;50853;46.836;16.820;2023-01-09T11:42:06;10.38;;;5.72;;
64467;SDS011;50853;46.836;16.820;2023-01-09T11:44:43;10.52;;;6.05;;
64467;SDS011;50853;46.836;16.820;2023-01-09T11:49:48;9.35;;;5.45;;
64467;SDS011;50853;46.836;16.820;2023-01-09T11:52:18;10.82;;;6.00;;
64467;SDS011;50853;46.836;16.820;2023-01-09T11:57:19;10.07;;;6.38;;
64467;SDS011;50853;46.836;16.820;2023-01-09T11:59:47;12.80;;;5.70;;
64467;SDS011;50853;46.836;16.820;2023-01-09T12:10:40;9.48;;;6.00;;
64467;SDS011;50853;46.836;16.820;2023-01-09T12:13:34;8.40;;;5.57;;
64467;SDS011;50853;46.836;16.820;2023-01-09T12:18:52;10.32;;;6.03;;
64467;SDS011;50853;46.836;16.820;2023-01-09T12:29:33;10.02;;;5.93;;
64467;SDS011;50853;46.836;16.820;2023-01-09T12:35:44;8.13;;;5.55;;
64467;SDS011;50853;46.836;16.820;2023-01-09T12:46:39;8.23;;;5.03;;
64467;SDS011;50853;46.836;16.820;2023-01-09T12:57:29;8.55;;;5.65;;
64467;SDS011;50853;46.836;16.820;2023-01-09T13:00:02;7.82;;;5.50;;
64467;SDS011;50853;46.836;16.820;2023-01-09T13:05:16;9.07;;;5.93;;
64467;SDS011;50853;46.836;16.820;2023-01-09T13:12:39;9.60;;;5.57;;
64467;SDS011;50853;46.836;16.820;2023-01-09T13:18:22;9.25;;;6.10;;
64467;SDS011;50853;46.836;16.820;2023-01-09T13:20:54;7.35;;;5.55;;
64467;SDS011;50853;46.836;16.820;2023-01-09T13:23:23;10.70;;;6.45;;
64467;SDS011;50853;46.836;16.820;2023-01-09T13:26:09;10.45;;;6.38;;
64467;SDS011;50853;46.836;16.820;2023-01-09T13:34:29;8.15;;;5.40;;
64467;SDS011;50853;46.836;16.820;2023-01-09T13:36:58;8.15;;;5.45;;
64467;SDS011;50853;46.836;16.820;2023-01-09T13:39:26;7.53;;;4.40;;
64467;SDS011;50853;46.836;16.820;2023-01-09T13:42:03;10.55;;;4.72;;
64467;SDS011;50853;46.836;16.820;2023-01-09T13:44:51;7.10;;;4.70;;
64467;SDS011;50853;46.836;16.820;2023-01-09T13:47:23;8.75;;;4.80;;
64467;SDS011;50853;46.836;16.820;2023-01-09T13:50:19;6.88;;;4.10;;
64467;SDS011;50853;46.836;16.820;2023-01-09T13:52:50;8.00;;;4.25;;
64467;SDS011;50853;46.836;16.820;2023-01-09T14:08:21;4.53;;;3.05;;
64467;SDS011;50853;46.836;16.820;2023-01-09T14:16:04;5.07;;;2.75;;
64467;SDS011;50853;46.836;16.820;2023-01-09T14:18:36;3.17;;;2.20;;
64467;SDS011;50853;46.836;16.820;2023-01-09T14:21:09;2.97;;;2.17;;
64467;SDS011;50853;46.836;16.820;2023-01-09T14:23:46;4.25;;;2.50;;
64467;SDS011;50853;46.836;16.820;2023-01-09T14:26:48;5.43;;;2.25;;
64467;SDS011;50853;46.836;16.820;2023-01-09T14:32:54;6.10;;;2.03;;
64467;SDS011;50853;46.836;16.820;2023-01-09T14:37:34;5.45;;;2.05;;
64467;SDS011;50853;46.836;16.820;2023-01-09T14:40:01;5.28;;;1.77;;
64467;SDS011;50853;46.836;16.820;2023-01-09T14:42:28;2.45;;;1.52;;
64467;SDS011;50853;46.836;16.820;2023-01-09T14:47:43;3.10;;;1.65;;
64467;SDS011;50853;46.836;16.820;2023-01-09T14:53:11;2.58;;;1.60;;
64467;SDS011;50853;46.836;16.820;2023-01-09T14:58:35;4.32;;;2.22;;
64467;SDS011;50853;46.836;16.820;2023-01-09T15:03:33;5.47;;;2.13;;
64467;SDS011;50853;46.836;16.820;2023-01-09T15:06:19;3.42;;;2.13;;
64467;SDS011;50853;46.836;16.820;2023-01-09T15:08:53;5.75;;;2.47;;
64467;SDS011;50853;46.836;16.820;2023-01-09T15:11:28;3.42;;;1.88;;
64467;SDS011;50853;46.836;16.820;2023-01-09T15:13:56;8.88;;;2.20;;
64467;SDS011;50853;46.836;16.820;2023-01-09T15:16:26;6.82;;;1.95;;
64467;SDS011;50853;46.836;16.820;2023-01-09T15:18:54;5.65;;;1.60;;
64467;SDS011;50853;46.836;16.820;2023-01-09T15:21:25;8.13;;;2.28;;
64467;SDS011;50853;46.836;16.820;2023-01-09T15:24:09;10.85;;;2.35;;
64467;SDS011;50853;46.836;16.820;2023-01-09T15:26:56;14.95;;;2.80;;
64467;SDS011;50853;46.836;16.820;2023-01-09T15:29:34;13.27;;;2.25;;
64467;SDS011;50853;46.836;16.820;2023-01-09T15:32:06;21.77;;;3.03;;
64467;SDS011;50853;46.836;16.820;2023-01-09T15:34:39;18.50;;;3.15;;
64467;SDS011;50853;46.836;16.820;2023-01-09T15:37:52;14.45;;;3.13;;
64467;SDS011;50853;46.836;16.820;2023-01-09T15:40:02;16.88;;;3.20;;
64467;SDS011;50853;46.836;16.820;2023-01-09T15:42:32;9.85;;;3.33;;
64467;SDS011;50853;46.836;16.820;2023-01-09T15:45:39;14.35;;;2.45;;
64467;SDS011;50853;46.836;16.820;2023-01-09T15:48:39;15.23;;;2.63;;
64467;SDS011;50853;46.836;16.820;2023-01-09T15:53:25;14.85;;;3.45;;
64467;SDS011;50853;46.836;16.820;2023-01-09T15:56:02;10.23;;;2.85;;
64467;SDS011;50853;46.836;16.820;2023-01-09T15:58:39;11.30;;;3.00;;
64467;SDS011;50853;46.836;16.820;2023-01-09T16:03:53;10.80;;;2.92;;
64467;SDS011;50853;46.836;16.820;2023-01-09T16:06:31;9.32;;;2.50;;
64467;SDS011;50853;46.836;16.820;2023-01-09T16:08:59;7.72;;;2.70;;
64467;SDS011;50853;46.836;16.820;2023-01-09T16:13:53;10.77;;;2.50;;
64467;SDS011;50853;46.836;16.820;2023-01-09T16:16:23;8.82;;;2.42;;
64467;SDS011;50853;46.836;16.820;2023-01-09T16:18:52;6.75;;;2.20;;
64467;SDS011;50853;46.836;16.820;2023-01-09T16:23:52;20.38;;;2.65;;
64467;SDS011;50853;46.836;16.820;2023-01-09T16:26:27;23.67;;;4.57;;
64467;SDS011;50853;46.836;16.820;2023-01-09T16:28:54;25.98;;;4.97;;
64467;SDS011;50853;46.836;16.820;2023-01-09T16:31:22;20.13;;;4.03;;
64467;SDS011;50853;46.836;16.820;2023-01-09T16:33:59;16.35;;;4.53;;
64467;SDS011;50853;46.836;16.820;2023-01-09T16:36:30;17.77;;;4.47;;
64467;SDS011;50853;46.836;16.820;2023-01-09T16:38:59;18.35;;;5.18;;
64467;SDS011;50853;46.836;16.820;2023-01-09T16:41:27;21.38;;;4.20;;
64467;SDS011;50853;46.836;16.820;2023-01-09T16:44:12;20.15;;;4.55;;
64467;SDS011;50853;46.836;16.820;2023-01-09T16:46:42;16.00;;;3.70;;
64467;SDS011;50853;46.836;16.820;2023-01-09T16:49:15;16.05;;;4.60;;
64467;SDS011;50853;46.836;16.820;2023-01-09T16:51:43;15.25;;;4.75;;
64467;SDS011;50853;46.836;16.820;2023-01-09T16:54:09;19.45;;;4.50;;
64467;SDS011;50853;46.836;16.820;2023-01-09T16:59:02;16.67;;;3.92;;
64467;SDS011;50853;46.836;16.820;2023-01-09T17:01:28;15.93;;;4.10;;
64467;SDS011;50853;46.836;16.820;2023-01-09T17:03:54;13.70;;;3.90;;
64467;SDS011;50853;46.836;16.820;2023-01-09T17:06:30;11.93;;;3.80;;
64467;SDS011;50853;46.836;16.820;2023-01-09T17:08:56;14.23;;;3.70;;
64467;SDS011;50853;46.836;16.820;2023-01-09T17:11:23;13.00;;;3.40;;
64467;SDS011;50853;46.836;16.820;2023-01-09T17:14:00;13.68;;;3.72;;
64467;SDS011;50853;46.836;16.820;2023-01-09T17:16:26;13.07;;;3.25;;
64467;SDS011;50853;46.836;16.820;2023-01-09T17:18:53;15.23;;;4.10;;
64467;SDS011;50853;46.836;16.820;2023-01-09T17:21:23;21.33;;;3.20;;
64467;SDS011;50853;46.836;16.820;2023-01-09T17:23:50;19.52;;;3.78;;
64467;SDS011;50853;46.836;16.820;2023-01-09T17:26:37;15.80;;;3.55;;
64467;SDS011;50853;46.836;16.820;2023-01-09T17:29:23;16.70;;;3.70;;
64467;SDS011;50853;46.836;16.820;2023-01-09T17:31:49;16.17;;;3.20;;
64467;SDS011;50853;46.836;16.820;2023-01-09T17:34:15;13.10;;;3.00;;
64467;SDS011;50853;46.836;16.820;2023-01-09T17:36:41;15.40;;;3.23;;
64467;SDS011;50853;46.836;16.820;2023-01-09T17:39:08;15.45;;;3.20;;
64467;SDS011;50853;46.836;16.820;2023-01-09T17:41:38;11.38;;;2.83;;
64467;SDS011;50853;46.836;16.820;2023-01-09T17:44:04;14.67;;;3.77;;
64467;SDS011;50853;46.836;16.820;2023-01-09T17:46:30;12.67;;;3.13;;
64467;SDS011;50853;46.836;16.820;2023-01-09T17:48:58;13.98;;;3.40;;
64467;SDS011;50853;46.836;16.820;2023-01-09T17:51:25;8.88;;;2.90;;
64467;SDS011;50853;46.836;16.820;2023-01-09T17:53:51;14.80;;;4.70;;